createdAt,value
2022-11-27T00:01:49.396Z,99438.31
2022-11-27T00:06:00.686Z,99446.59
2022-11-27T00:10:03.290Z,99442.09
2022-11-27T00:14:06.020Z,99454.47
2022-11-27T00:18:08.128Z,99450.63
2022-11-27T00:22:11.011Z,99462.06
2022-11-27T00:26:13.145Z,99463.78
2022-11-27T00:30:15.565Z,99471.88
2022-11-27T00:34:17.552Z,99470.28
2022-11-27T00:38:20.551Z,99476.63
2022-11-27T00:42:22.721Z,99472.59
2022-11-27T00:46:30.170Z,99481.22
2022-11-27T00:50:32.412Z,99481.69
2022-11-27T00:54:34.431Z,99480.06
2022-11-27T00:58:36.662Z,99486.19
2022-11-27T01:02:38.828Z,99478.13
2022-11-27T01:06:42.215Z,99469.91
2022-11-27T01:10:55.294Z,99477.28
2022-11-27T01:14:57.352Z,99488.34
2022-11-27T01:19:01.280Z,99484.78
2022-11-27T01:23:03.628Z,99486.47
2022-11-27T01:27:05.651Z,99488.28
2022-11-27T01:31:11.063Z,99486.53
2022-11-27T01:35:13.031Z,99489.94
2022-11-27T01:39:20.987Z,99499.22
2022-11-27T01:43:48.268Z,99491.84
2022-11-27T01:47:54.418Z,99492.38
2022-11-27T01:52:01.182Z,99489.78
2022-11-27T01:56:05.547Z,99480.22
2022-11-27T02:00:10.378Z,99475.13
2022-11-27T02:04:15.924Z,99459.72
2022-11-27T02:08:18.469Z,99456.34
2022-11-27T02:12:25.315Z,99454.34
2022-11-27T02:16:45.324Z,99455.13
2022-11-27T02:20:50.590Z,99447.06
2022-11-27T02:24:56.007Z,99450.47
2022-11-27T02:29:09.241Z,99441.47
2022-11-27T02:33:20.138Z,99439.88
2022-11-27T02:38:21.122Z,99438.41
2022-11-27T02:42:25.560Z,99436.25
2022-11-27T02:46:29.025Z,99430.47
2022-11-27T02:50:33.789Z,99429.06
2022-11-27T02:54:36.551Z,99442.94
2022-11-27T02:58:40.143Z,99438.56
2022-11-27T03:02:51.151Z,99431.72
2022-11-27T03:06:58.219Z,99437.63
2022-11-27T03:11:12.549Z,99441.03
2022-11-27T03:15:15.623Z,99427.53
2022-11-27T03:19:30.923Z,99429.84
2022-11-27T03:23:33.156Z,99422.94
2022-11-27T03:28:04.333Z,99427.72
2022-11-27T03:32:06.631Z,99426.31
2022-11-27T03:36:20.907Z,99420.16
2022-11-27T03:40:30.504Z,99420.28
2022-11-27T03:44:48.945Z,99417.56
2022-11-27T03:49:02.998Z,99422.06
2022-11-27T03:53:37.654Z,99415.44
2022-11-27T03:57:49.379Z,99400.91
2022-11-27T04:01:51.612Z,99407.25
2022-11-27T04:05:54.039Z,99400.59
2022-11-27T04:09:56.026Z,99391.47
2022-11-27T04:13:58.178Z,99384.28
2022-11-27T04:18:00.181Z,99380.16
2022-11-27T04:22:02.228Z,99387.56
2022-11-27T04:26:05.131Z,99390.22
2022-11-27T04:30:08.054Z,99389.94
2022-11-27T04:34:10.128Z,99392.47
2022-11-27T04:38:12.608Z,99392.06
2022-11-27T04:42:14.654Z,99386.19
2022-11-27T04:46:16.760Z,99383.94
2022-11-27T04:50:18.947Z,99392.84
2022-11-27T04:54:21.002Z,99380.72
2022-11-27T04:58:23.253Z,99388.91
2022-11-27T05:02:25.454Z,99382.72
2022-11-27T05:06:27.776Z,99395.25
2022-11-27T05:10:29.874Z,99402.44
2022-11-27T05:14:31.967Z,99399.31
2022-11-27T05:18:34.586Z,99409.31
2022-11-27T05:22:36.722Z,99421.25
2022-11-27T05:26:44.676Z,99411.91
2022-11-27T05:30:46.977Z,99422.78
2022-11-27T05:34:49.783Z,99422.63
2022-11-27T05:38:52.306Z,99434.47
2022-11-27T05:42:54.615Z,99433.56
2022-11-27T05:46:57.323Z,99439.72
2022-11-27T05:50:59.489Z,99448.34
2022-11-27T05:55:01.905Z,99444.75
2022-11-27T05:59:03.886Z,99429.34
2022-11-27T06:03:06.097Z,99430.50
2022-11-27T06:07:08.379Z,99425.25
2022-11-27T06:11:13.379Z,99428.97
2022-11-27T06:19:53.511Z,99428.09
2022-11-27T06:23:56.839Z,99439.84
2022-11-27T06:27:59.079Z,99434.81
2022-11-27T06:32:01.186Z,99434.00
2022-11-27T06:36:04.550Z,99451.16
2022-11-27T06:40:07.264Z,99436.88
2022-11-27T06:44:10.537Z,99448.34
2022-11-27T06:48:12.991Z,99456.22
2022-11-27T06:52:15.194Z,99456.91
2022-11-27T06:56:23.073Z,99453.44
2022-11-27T07:00:29.525Z,99454.00
2022-11-27T07:04:31.715Z,99464.03
2022-11-27T07:08:35.233Z,99467.72
2022-11-27T07:12:37.279Z,99459.38
2022-11-27T07:16:41.464Z,99471.78
2022-11-27T07:20:56.251Z,99473.25
2022-11-27T07:24:58.885Z,99479.31
2022-11-27T07:29:01.035Z,99502.88
2022-11-27T07:33:03.145Z,99492.50
2022-11-27T07:37:05.196Z,99489.50
2022-11-27T07:41:07.879Z,99501.63
2022-11-27T07:45:11.413Z,99474.69
2022-11-27T07:49:13.406Z,99480.34
2022-11-27T07:53:15.394Z,99469.38
2022-11-27T07:57:17.482Z,99486.69
2022-11-27T08:01:20.163Z,99478.50
2022-11-27T08:05:22.347Z,99482.53
2022-11-27T08:09:24.652Z,99478.13
2022-11-27T08:13:26.730Z,99472.78
2022-11-27T08:17:28.774Z,99477.91
2022-11-27T08:21:31.260Z,99460.50
2022-11-27T08:25:33.333Z,99473.94
2022-11-27T08:29:35.537Z,99470.78
2022-11-27T08:33:38.120Z,99464.31
2022-11-27T08:37:40.259Z,99464.38
2022-11-27T08:41:42.289Z,99481.16
2022-11-27T08:45:44.464Z,99459.50
2022-11-27T08:49:46.970Z,99477.06
2022-11-27T08:53:49.174Z,99475.91
2022-11-27T08:57:51.560Z,99467.28
2022-11-27T09:01:53.836Z,99465.91
2022-11-27T09:05:56.124Z,99474.53
2022-11-27T09:09:58.443Z,99464.00
2022-11-27T09:14:13.331Z,99471.13
2022-11-27T09:18:43.565Z,99471.59
2022-11-27T09:22:45.610Z,99464.19
2022-11-27T09:26:47.724Z,99471.78
2022-11-27T09:30:54.529Z,99482.44
2022-11-27T09:34:56.886Z,99465.16
2022-11-27T09:39:01.813Z,99468.72
2022-11-27T09:43:10.272Z,99448.34
2022-11-27T09:47:19.850Z,99457.81
2022-11-27T09:51:34.575Z,99466.94
2022-11-27T09:55:43.227Z,99472.59
2022-11-27T09:59:51.234Z,99461.84
2022-11-27T10:03:53.741Z,99459.34
2022-11-27T10:08:03.204Z,99462.16
2022-11-27T10:12:20.807Z,99449.53
2022-11-27T10:16:48.792Z,99475.63
2022-11-27T10:21:14.173Z,99456.38
2022-11-27T10:25:39.682Z,99463.66
2022-11-27T10:29:57.320Z,99462.50
2022-11-27T10:34:02.928Z,99454.03
2022-11-27T10:38:19.881Z,99438.59
2022-11-27T10:42:34.271Z,99437.28
2022-11-27T10:46:42.613Z,99433.97
2022-11-27T10:50:50.812Z,99435.03
2022-11-27T10:55:01.632Z,99429.94
2022-11-27T10:59:34.888Z,99438.59
2022-11-27T11:03:40.266Z,99435.97
2022-11-27T11:07:42.572Z,99429.38
2022-11-27T11:11:45.607Z,99427.06
2022-11-27T11:15:52.713Z,99429.03
2022-11-27T11:19:58.131Z,99428.72
2022-11-27T11:24:26.811Z,99421.78
2022-11-27T11:28:33.978Z,99426.31
2022-11-27T11:32:40.614Z,99417.84
2022-11-27T11:36:55.733Z,99402.47
2022-11-27T11:41:01.630Z,99403.13
2022-11-27T11:45:18.234Z,99384.94
2022-11-27T11:49:26.191Z,99356.22
2022-11-27T11:53:45.558Z,99342.88
2022-11-27T11:58:03.933Z,99337.09
2022-11-27T12:02:31.531Z,99333.34
2022-11-27T12:06:52.314Z,99329.22
2022-11-27T12:11:09.585Z,99301.19
2022-11-27T12:15:29.910Z,99284.59
2022-11-27T12:19:54.382Z,99266.84
2022-11-27T12:24:19.313Z,99288.25
2022-11-27T12:29:02.513Z,99299.38
2022-11-27T12:33:31.564Z,99295.59
2022-11-27T12:37:57.751Z,99305.34
2022-11-27T12:42:08.661Z,99309.88
2022-11-27T12:46:22.837Z,99309.53
2022-11-27T12:51:03.472Z,99312.03
2022-11-27T12:55:23.342Z,99316.63
2022-11-27T12:59:33.410Z,99320.34
2022-11-27T13:04:00.367Z,99313.72
2022-11-27T13:08:14.746Z,99306.22
2022-11-27T13:12:32.693Z,99280.41
2022-11-27T13:16:46.771Z,99284.06
2022-11-27T13:20:52.754Z,99272.66
2022-11-27T13:24:56.756Z,99282.25
2022-11-27T13:29:08.704Z,99275.25
2022-11-27T13:33:28.728Z,99275.25
2022-11-27T13:37:38.751Z,99296.16
2022-11-27T13:41:41.388Z,99277.09
2022-11-27T13:45:44.421Z,99282.38
2022-11-27T13:50:03.086Z,99276.25
2022-11-27T13:54:18.304Z,99270.53
2022-11-27T13:58:38.203Z,99278.53
2022-11-27T14:02:41.677Z,99275.13
2022-11-27T14:06:51.434Z,99276.94
2022-11-27T14:10:58.749Z,99267.00
2022-11-27T14:15:05.982Z,99268.56
2022-11-27T14:19:32.095Z,99261.81
2022-11-27T14:23:50.584Z,99258.56
2022-11-27T14:28:11.244Z,99251.97
2022-11-27T14:32:16.112Z,99254.63
2022-11-27T14:36:26.463Z,99269.03
2022-11-27T14:40:28.941Z,99262.84
2022-11-27T14:44:31.882Z,99269.44
2022-11-27T14:48:47.112Z,99267.28
2022-11-27T14:52:56.107Z,99270.16
2022-11-27T14:56:58.780Z,99272.19
2022-11-27T15:01:06.974Z,99270.94
2022-11-27T15:05:38.574Z,99266.25
2022-11-27T15:09:46.638Z,99265.56
2022-11-27T15:13:59.050Z,99244.59
2022-11-27T15:18:03.915Z,99245.31
2022-11-27T15:22:05.887Z,99245.63
2022-11-27T15:26:16.812Z,99244.41
2022-11-27T15:30:19.317Z,99250.28
2022-11-27T15:34:24.384Z,99252.03
2022-11-27T15:38:26.601Z,99264.25
2022-11-27T15:42:28.998Z,99257.97
2022-11-27T15:46:34.631Z,99262.19
2022-11-27T15:50:36.808Z,99260.59
2022-11-27T15:54:39.083Z,99262.00
2022-11-27T15:58:41.880Z,99270.25
2022-11-27T16:02:43.959Z,99263.69
2022-11-27T16:06:46.150Z,99263.25
2022-11-27T16:10:48.577Z,99265.28
2022-11-27T16:14:50.802Z,99276.94
2022-11-27T16:18:57.278Z,99276.97
2022-11-27T16:22:59.328Z,99279.63
2022-11-27T16:27:01.632Z,99272.38
2022-11-27T16:31:08.451Z,99279.75
2022-11-27T16:35:10.967Z,99268.28
2022-11-27T16:39:13.691Z,99272.09
2022-11-27T16:43:16.491Z,99272.25
2022-11-27T16:47:19.329Z,99273.19
2022-11-27T16:51:28.650Z,99266.25
2022-11-27T16:55:31.609Z,99269.78
2022-11-27T16:59:37.974Z,99279.34
2022-11-27T17:03:40.226Z,99275.19
2022-11-27T17:07:42.718Z,99276.66
2022-11-27T17:11:48.738Z,99265.69
2022-11-27T17:15:51.328Z,99271.34
2022-11-27T17:20:00.254Z,99258.22
2022-11-27T17:24:11.630Z,99256.94
2022-11-27T17:28:18.378Z,99255.34
2022-11-27T17:32:20.523Z,99251.66
2022-11-27T17:36:24.715Z,99245.84
2022-11-27T17:40:26.829Z,99240.19
2022-11-27T17:44:28.797Z,99241.59
2022-11-27T17:48:31.484Z,99241.97
2022-11-27T17:52:33.645Z,99232.41
2022-11-27T17:56:35.660Z,99224.13
2022-11-27T18:00:40.667Z,99229.19
2022-11-27T18:04:42.834Z,99223.88
2022-11-27T18:08:46.362Z,99215.41
2022-11-27T18:12:50.205Z,99201.28
2022-11-27T18:16:52.595Z,99202.75
2022-11-27T18:20:54.998Z,99200.22
2022-11-27T18:24:57.229Z,99197.09
2022-11-27T18:29:00.494Z,99187.97
2022-11-27T18:33:03.631Z,99194.75
2022-11-27T18:37:06.310Z,99196.47
2022-11-27T18:41:17.162Z,99203.69
2022-11-27T18:45:32.738Z,99192.81
2022-11-27T18:49:40.277Z,99199.44
2022-11-27T18:53:43.696Z,99209.59
2022-11-27T18:57:46.463Z,99214.97
2022-11-27T19:01:49.464Z,99216.91
2022-11-27T19:05:51.802Z,99225.44
2022-11-27T19:09:54.257Z,99228.09
2022-11-27T19:13:58.379Z,99210.09
2022-11-27T19:18:00.401Z,99218.94
2022-11-27T19:22:03.315Z,99212.41
2022-11-27T19:26:10.528Z,99208.28
2022-11-27T19:30:13.869Z,99212.63
2022-11-27T19:34:16.358Z,99188.88
2022-11-27T19:38:18.627Z,99195.44
2022-11-27T19:42:22.536Z,99202.66
2022-11-27T19:46:27.684Z,99204.31
2022-11-27T19:50:30.131Z,99201.72
2022-11-27T19:54:32.424Z,99207.59
2022-11-27T19:58:35.832Z,99205.81
2022-11-27T20:02:38.601Z,99188.94
2022-11-27T20:06:41.235Z,99181.41
2022-11-27T20:10:49.819Z,99184.34
2022-11-27T20:14:52.173Z,99181.56
2022-11-27T20:18:55.338Z,99182.16
2022-11-27T20:22:58.879Z,99181.81
2022-11-27T20:27:00.873Z,99166.03
2022-11-27T20:31:04.285Z,99157.00
2022-11-27T20:35:06.958Z,99157.53
2022-11-27T20:39:13.916Z,99169.28
2022-11-27T20:43:19.186Z,99180.00
2022-11-27T20:47:21.400Z,99185.06
2022-11-27T20:51:30.226Z,99173.75
2022-11-27T20:55:34.590Z,99175.56
2022-11-27T20:59:37.346Z,99186.53
2022-11-27T21:03:39.598Z,99185.28
2022-11-27T21:07:43.137Z,99176.59
2022-11-27T21:11:48.645Z,99182.06
2022-11-27T21:15:50.870Z,99196.22
2022-11-27T21:19:53.330Z,99180.44
2022-11-27T21:23:55.754Z,99191.16
2022-11-27T21:27:59.585Z,99186.53
2022-11-27T21:32:03.474Z,99184.69
2022-11-27T21:36:05.985Z,99173.72
2022-11-27T21:40:08.697Z,99179.00
2022-11-27T21:44:10.802Z,99174.97
2022-11-27T21:48:14.461Z,99178.75
2022-11-27T21:52:17.428Z,99184.84
2022-11-27T21:56:22.552Z,99186.50
2022-11-27T22:00:24.685Z,99182.66
2022-11-27T22:04:26.842Z,99172.09
2022-11-27T22:08:29.858Z,99163.56
2022-11-27T22:12:32.303Z,99153.03
2022-11-27T22:16:44.154Z,99146.13
2022-11-27T22:20:47.480Z,99152.22
2022-11-27T22:24:49.863Z,99148.78
2022-11-27T22:28:52.481Z,99139.88
2022-11-27T22:32:56.463Z,99130.06
2022-11-27T22:36:58.535Z,99148.03
2022-11-27T22:41:00.789Z,99140.34
2022-11-27T22:45:03.032Z,99129.47
2022-11-27T22:49:06.718Z,99136.59
2022-11-27T22:53:08.823Z,99140.34
2022-11-27T22:57:10.837Z,99138.09
2022-11-27T23:01:20.740Z,99127.53
2022-11-27T23:05:22.917Z,99130.34
2022-11-27T23:09:24.995Z,99133.63
2022-11-27T23:13:27.200Z,99129.94
2022-11-27T23:17:29.269Z,99123.25
2022-11-27T23:21:32.878Z,99104.63
2022-11-27T23:25:35.393Z,99114.09
2022-11-27T23:29:37.389Z,99115.25
2022-11-27T23:33:40.079Z,99114.44
2022-11-27T23:37:42.400Z,99123.19
2022-11-27T23:41:44.477Z,99113.72
2022-11-27T23:45:46.720Z,99127.66
2022-11-27T23:49:48.831Z,99123.00
2022-11-27T23:53:51.102Z,99109.34
2022-11-27T23:57:53.160Z,99098.88
